sensor_id;sensor_type;location;lat;lon;timestamp;P1;durP1;ratioP1;P2;durP2;ratioP2
45812;SDS011;31519;45.408;10.962;2023-11-19T00:01:35;24.27;;;10.32;;
45812;SDS011;31519;45.408;10.962;2023-11-19T00:04:04;26.30;;;9.65;;
45812;SDS011;31519;45.408;10.962;2023-11-19T00:06:33;21.13;;;9.95;;
45812;SDS011;31519;45.408;10.962;2023-11-19T00:09:01;20.95;;;9.52;;
45812;SDS011;31519;45.408;10.962;2023-11-19T00:11:31;21.15;;;8.52;;
45812;SDS011;31519;45.408;10.962;2023-11-19T00:13:59;18.40;;;8.18;;
45812;SDS011;31519;45.408;10.962;2023-11-19T00:16:28;18.65;;;8.32;;
45812;SDS011;31519;45.408;10.962;2023-11-19T00:18:56;24.15;;;8.40;;
45812;SDS011;31519;45.408;10.962;2023-11-19T00:21:25;18.90;;;8.35;;
45812;SDS011;31519;45.408;10.962;2023-11-19T00:23:56;21.10;;;7.40;;
45812;SDS011;31519;45.408;10.962;2023-11-19T00:26:26;17.65;;;7.80;;
45812;SDS011;31519;45.408;10.962;2023-11-19T00:28:54;18.25;;;8.13;;
45812;SDS011;31519;45.408;10.962;2023-11-19T00:31:24;14.13;;;7.25;;
45812;SDS011;31519;45.408;10.962;2023-11-19T00:33:55;28.08;;;7.25;;
45812;SDS011;31519;45.408;10.962;2023-11-19T00:36:24;16.67;;;7.07;;
45812;SDS011;31519;45.408;10.962;2023-11-19T00:38:52;13.38;;;6.45;;
45812;SDS011;31519;45.408;10.962;2023-11-19T00:41:21;14.50;;;6.97;;
45812;SDS011;31519;45.408;10.962;2023-11-19T00:43:50;10.38;;;5.18;;
45812;SDS011;31519;45.408;10.962;2023-11-19T00:46:18;14.82;;;6.40;;
45812;SDS011;31519;45.408;10.962;2023-11-19T00:48:47;8.95;;;5.28;;
45812;SDS011;31519;45.408;10.962;2023-11-19T00:51:16;15.60;;;6.32;;
45812;SDS011;31519;45.408;10.962;2023-11-19T00:53:44;18.02;;;7.00;;
45812;SDS011;31519;45.408;10.962;2023-11-19T00:56:12;14.45;;;6.03;;
45812;SDS011;31519;45.408;10.962;2023-11-19T00:58:40;13.52;;;5.45;;
45812;SDS011;31519;45.408;10.962;2023-11-19T01:01:10;14.18;;;5.90;;
45812;SDS011;31519;45.408;10.962;2023-11-19T01:03:39;19.63;;;6.50;;
45812;SDS011;31519;45.408;10.962;2023-11-19T01:06:08;17.48;;;6.47;;
45812;SDS011;31519;45.408;10.962;2023-11-19T01:08:36;15.60;;;6.80;;
45812;SDS011;31519;45.408;10.962;2023-11-19T01:11:05;14.80;;;5.60;;
45812;SDS011;31519;45.408;10.962;2023-11-19T01:13:33;13.75;;;6.18;;
45812;SDS011;31519;45.408;10.962;2023-11-19T01:16:01;15.48;;;6.25;;
45812;SDS011;31519;45.408;10.962;2023-11-19T01:18:30;13.82;;;6.15;;
45812;SDS011;31519;45.408;10.962;2023-11-19T01:21:01;15.95;;;5.57;;
45812;SDS011;31519;45.408;10.962;2023-11-19T01:23:29;12.70;;;6.03;;
45812;SDS011;31519;45.408;10.962;2023-11-19T01:25:58;18.33;;;6.13;;
45812;SDS011;31519;45.408;10.962;2023-11-19T01:28:26;14.20;;;5.85;;
45812;SDS011;31519;45.408;10.962;2023-11-19T01:30:55;12.25;;;5.97;;
45812;SDS011;31519;45.408;10.962;2023-11-19T01:33:23;15.73;;;5.38;;
45812;SDS011;31519;45.408;10.962;2023-11-19T01:35:51;12.98;;;5.85;;
45812;SDS011;31519;45.408;10.962;2023-11-19T01:38:20;13.75;;;5.35;;
45812;SDS011;31519;45.408;10.962;2023-11-19T01:40:48;15.57;;;5.88;;
45812;SDS011;31519;45.408;10.962;2023-11-19T01:46:04;7.70;;;4.30;;
45812;SDS011;31519;45.408;10.962;2023-11-19T01:48:34;13.23;;;5.13;;
45812;SDS011;31519;45.408;10.962;2023-11-19T01:51:04;9.98;;;4.65;;
45812;SDS011;31519;45.408;10.962;2023-11-19T01:53:34;8.90;;;4.50;;
45812;SDS011;31519;45.408;10.962;2023-11-19T01:56:05;10.43;;;4.75;;
45812;SDS011;31519;45.408;10.962;2023-11-19T02:01:07;7.03;;;4.60;;
45812;SDS011;31519;45.408;10.962;2023-11-19T02:03:37;10.25;;;4.45;;
45812;SDS011;31519;45.408;10.962;2023-11-19T02:06:06;7.75;;;4.00;;
45812;SDS011;31519;45.408;10.962;2023-11-19T02:08:34;6.85;;;3.13;;
45812;SDS011;31519;45.408;10.962;2023-11-19T02:11:03;5.57;;;3.28;;
45812;SDS011;31519;45.408;10.962;2023-11-19T02:13:35;9.30;;;4.45;;
45812;SDS011;31519;45.408;10.962;2023-11-19T02:16:06;6.18;;;3.33;;
45812;SDS011;31519;45.408;10.962;2023-11-19T02:18:37;7.78;;;4.20;;
45812;SDS011;31519;45.408;10.962;2023-11-19T02:21:05;10.93;;;3.53;;
45812;SDS011;31519;45.408;10.962;2023-11-19T02:23:34;5.38;;;2.92;;
45812;SDS011;31519;45.408;10.962;2023-11-19T02:28:36;7.93;;;3.08;;
45812;SDS011;31519;45.408;10.962;2023-11-19T02:31:05;5.20;;;3.03;;
45812;SDS011;31519;45.408;10.962;2023-11-19T02:33:37;3.30;;;2.60;;
45812;SDS011;31519;45.408;10.962;2023-11-19T02:36:07;6.38;;;3.28;;
45812;SDS011;31519;45.408;10.962;2023-11-19T02:38:36;4.57;;;3.17;;
45812;SDS011;31519;45.408;10.962;2023-11-19T02:41:04;9.20;;;3.15;;
45812;SDS011;31519;45.408;10.962;2023-11-19T02:43:34;6.47;;;2.97;;
45812;SDS011;31519;45.408;10.962;2023-11-19T02:46:05;3.60;;;3.20;;
45812;SDS011;31519;45.408;10.962;2023-11-19T02:48:39;8.15;;;3.03;;
45812;SDS011;31519;45.408;10.962;2023-11-19T02:51:08;7.90;;;3.33;;
45812;SDS011;31519;45.408;10.962;2023-11-19T02:53:39;7.30;;;3.00;;
45812;SDS011;31519;45.408;10.962;2023-11-19T02:56:08;6.90;;;3.03;;
45812;SDS011;31519;45.408;10.962;2023-11-19T02:58:47;4.28;;;2.83;;
45812;SDS011;31519;45.408;10.962;2023-11-19T03:01:24;6.25;;;3.35;;
45812;SDS011;31519;45.408;10.962;2023-11-19T03:04:02;4.30;;;2.80;;
45812;SDS011;31519;45.408;10.962;2023-11-19T03:06:32;9.10;;;4.43;;
45812;SDS011;31519;45.408;10.962;2023-11-19T03:09:00;10.32;;;3.38;;
45812;SDS011;31519;45.408;10.962;2023-11-19T03:14:02;11.30;;;3.40;;
45812;SDS011;31519;45.408;10.962;2023-11-19T03:16:31;7.03;;;3.05;;
45812;SDS011;31519;45.408;10.962;2023-11-19T03:19:00;8.32;;;3.67;;
45812;SDS011;31519;45.408;10.962;2023-11-19T03:21:29;7.03;;;3.50;;
45812;SDS011;31519;45.408;10.962;2023-11-19T03:23:59;4.07;;;3.03;;
45812;SDS011;31519;45.408;10.962;2023-11-19T03:26:28;7.40;;;3.42;;
45812;SDS011;31519;45.408;10.962;2023-11-19T03:28:56;8.43;;;3.53;;
45812;SDS011;31519;45.408;10.962;2023-11-19T03:31:27;7.10;;;3.70;;
45812;SDS011;31519;45.408;10.962;2023-11-19T03:33:55;6.30;;;3.40;;
45812;SDS011;31519;45.408;10.962;2023-11-19T03:36:31;7.50;;;4.15;;
45812;SDS011;31519;45.408;10.962;2023-11-19T03:41:29;7.40;;;3.63;;
45812;SDS011;31519;45.408;10.962;2023-11-19T03:44:08;5.50;;;3.65;;
45812;SDS011;31519;45.408;10.962;2023-11-19T03:46:36;9.88;;;3.22;;
45812;SDS011;31519;45.408;10.962;2023-11-19T03:49:05;10.88;;;4.10;;
45812;SDS011;31519;45.408;10.962;2023-11-19T03:51:35;8.02;;;3.72;;
45812;SDS011;31519;45.408;10.962;2023-11-19T03:54:04;5.47;;;3.50;;
45812;SDS011;31519;45.408;10.962;2023-11-19T03:56:32;13.20;;;3.78;;
45812;SDS011;31519;45.408;10.962;2023-11-19T03:59:00;8.07;;;3.95;;
45812;SDS011;31519;45.408;10.962;2023-11-19T04:01:29;9.55;;;4.00;;
45812;SDS011;31519;45.408;10.962;2023-11-19T04:03:57;6.80;;;3.60;;
45812;SDS011;31519;45.408;10.962;2023-11-19T04:06:25;6.30;;;3.42;;
45812;SDS011;31519;45.408;10.962;2023-11-19T04:08:53;9.23;;;3.78;;
45812;SDS011;31519;45.408;10.962;2023-11-19T04:11:22;8.35;;;3.97;;
45812;SDS011;31519;45.408;10.962;2023-11-19T04:13:50;5.82;;;3.80;;
45812;SDS011;31519;45.408;10.962;2023-11-19T04:16:18;7.90;;;3.55;;
45812;SDS011;31519;45.408;10.962;2023-11-19T04:18:46;5.40;;;3.08;;
45812;SDS011;31519;45.408;10.962;2023-11-19T04:21:15;6.00;;;3.30;;
45812;SDS011;31519;45.408;10.962;2023-11-19T04:23:43;11.10;;;4.00;;
45812;SDS011;31519;45.408;10.962;2023-11-19T04:26:11;7.18;;;3.70;;
45812;SDS011;31519;45.408;10.962;2023-11-19T04:28:39;7.53;;;3.35;;
45812;SDS011;31519;45.408;10.962;2023-11-19T04:31:08;5.78;;;3.40;;
45812;SDS011;31519;45.408;10.962;2023-11-19T04:33:37;7.78;;;3.60;;
45812;SDS011;31519;45.408;10.962;2023-11-19T04:36:06;9.50;;;3.70;;
45812;SDS011;31519;45.408;10.962;2023-11-19T04:38:34;6.03;;;3.42;;
45812;SDS011;31519;45.408;10.962;2023-11-19T04:41:03;5.80;;;3.20;;
45812;SDS011;31519;45.408;10.962;2023-11-19T04:43:33;4.60;;;2.67;;
45812;SDS011;31519;45.408;10.962;2023-11-19T04:46:03;8.32;;;3.15;;
45812;SDS011;31519;45.408;10.962;2023-11-19T04:48:32;4.68;;;3.22;;
45812;SDS011;31519;45.408;10.962;2023-11-19T04:51:09;5.35;;;3.25;;
45812;SDS011;31519;45.408;10.962;2023-11-19T04:53:37;8.63;;;3.65;;
45812;SDS011;31519;45.408;10.962;2023-11-19T04:56:10;10.10;;;4.32;;
45812;SDS011;31519;45.408;10.962;2023-11-19T04:58:39;10.25;;;3.25;;
45812;SDS011;31519;45.408;10.962;2023-11-19T05:01:13;5.88;;;3.83;;
45812;SDS011;31519;45.408;10.962;2023-11-19T05:03:43;8.65;;;3.35;;
45812;SDS011;31519;45.408;10.962;2023-11-19T05:06:13;8.70;;;3.20;;
45812;SDS011;31519;45.408;10.962;2023-11-19T05:08:43;10.80;;;3.72;;
45812;SDS011;31519;45.408;10.962;2023-11-19T05:11:12;6.45;;;3.22;;
45812;SDS011;31519;45.408;10.962;2023-11-19T05:13:45;12.47;;;3.67;;
45812;SDS011;31519;45.408;10.962;2023-11-19T05:16:14;7.25;;;3.30;;
45812;SDS011;31519;45.408;10.962;2023-11-19T05:18:43;6.50;;;3.08;;
45812;SDS011;31519;45.408;10.962;2023-11-19T05:21:12;5.20;;;3.33;;
45812;SDS011;31519;45.408;10.962;2023-11-19T05:23:40;4.68;;;3.42;;
45812;SDS011;31519;45.408;10.962;2023-11-19T05:26:16;5.55;;;3.58;;
45812;SDS011;31519;45.408;10.962;2023-11-19T05:28:45;6.97;;;3.45;;
45812;SDS011;31519;45.408;10.962;2023-11-19T05:31:16;4.07;;;3.05;;
45812;SDS011;31519;45.408;10.962;2023-11-19T05:33:45;7.68;;;3.55;;
45812;SDS011;31519;45.408;10.962;2023-11-19T05:36:13;5.28;;;3.10;;
45812;SDS011;31519;45.408;10.962;2023-11-19T05:38:41;4.75;;;3.13;;
45812;SDS011;31519;45.408;10.962;2023-11-19T05:41:10;8.50;;;3.38;;
45812;SDS011;31519;45.408;10.962;2023-11-19T05:43:38;4.50;;;3.15;;
45812;SDS011;31519;45.408;10.962;2023-11-19T05:46:08;7.15;;;3.70;;
45812;SDS011;31519;45.408;10.962;2023-11-19T05:48:39;7.20;;;3.40;;
45812;SDS011;31519;45.408;10.962;2023-11-19T05:51:08;9.65;;;3.58;;
45812;SDS011;31519;45.408;10.962;2023-11-19T05:53:35;9.27;;;3.95;;
45812;SDS011;31519;45.408;10.962;2023-11-19T05:56:04;6.65;;;3.42;;
45812;SDS011;31519;45.408;10.962;2023-11-19T05:58:32;5.40;;;3.38;;
45812;SDS011;31519;45.408;10.962;2023-11-19T06:01:01;6.60;;;3.60;;
45812;SDS011;31519;45.408;10.962;2023-11-19T06:03:30;4.43;;;3.55;;
45812;SDS011;31519;45.408;10.962;2023-11-19T06:05:59;7.60;;;3.90;;
45812;SDS011;31519;45.408;10.962;2023-11-19T06:08:27;6.78;;;3.90;;
45812;SDS011;31519;45.408;10.962;2023-11-19T06:10:55;11.57;;;3.88;;
45812;SDS011;31519;45.408;10.962;2023-11-19T06:13:23;10.23;;;3.42;;
45812;SDS011;31519;45.408;10.962;2023-11-19T06:15:53;6.10;;;3.53;;
45812;SDS011;31519;45.408;10.962;2023-11-19T06:18:21;8.88;;;3.85;;
45812;SDS011;31519;45.408;10.962;2023-11-19T06:20:51;6.53;;;3.72;;
45812;SDS011;31519;45.408;10.962;2023-11-19T06:23:19;7.13;;;3.88;;
45812;SDS011;31519;45.408;10.962;2023-11-19T06:25:47;7.30;;;4.03;;
45812;SDS011;31519;45.408;10.962;2023-11-19T06:28:15;8.02;;;3.17;;
45812;SDS011;31519;45.408;10.962;2023-11-19T06:30:44;7.93;;;3.97;;
45812;SDS011;31519;45.408;10.962;2023-11-19T06:33:16;9.82;;;3.88;;
45812;SDS011;31519;45.408;10.962;2023-11-19T06:35:44;10.85;;;5.53;;
45812;SDS011;31519;45.408;10.962;2023-11-19T06:38:12;7.72;;;4.65;;
45812;SDS011;31519;45.408;10.962;2023-11-19T06:40:41;10.15;;;4.38;;
45812;SDS011;31519;45.408;10.962;2023-11-19T06:43:09;7.57;;;4.13;;
45812;SDS011;31519;45.408;10.962;2023-11-19T06:45:38;9.23;;;4.60;;
45812;SDS011;31519;45.408;10.962;2023-11-19T06:48:06;8.95;;;4.38;;
45812;SDS011;31519;45.408;10.962;2023-11-19T06:50:35;6.10;;;3.80;;
45812;SDS011;31519;45.408;10.962;2023-11-19T06:53:03;7.57;;;4.13;;
45812;SDS011;31519;45.408;10.962;2023-11-19T06:55:34;9.05;;;4.43;;
45812;SDS011;31519;45.408;10.962;2023-11-19T06:58:02;10.77;;;4.38;;
45812;SDS011;31519;45.408;10.962;2023-11-19T07:00:31;10.75;;;4.40;;
45812;SDS011;31519;45.408;10.962;2023-11-19T07:03:00;6.03;;;4.05;;
45812;SDS011;31519;45.408;10.962;2023-11-19T07:05:29;8.63;;;4.03;;
45812;SDS011;31519;45.408;10.962;2023-11-19T07:07:57;10.55;;;5.28;;
45812;SDS011;31519;45.408;10.962;2023-11-19T07:10:26;19.40;;;4.43;;
45812;SDS011;31519;45.408;10.962;2023-11-19T07:12:54;8.75;;;3.90;;
45812;SDS011;31519;45.408;10.962;2023-11-19T07:15:23;9.80;;;4.30;;
45812;SDS011;31519;45.408;10.962;2023-11-19T07:17:51;9.35;;;4.32;;
45812;SDS011;31519;45.408;10.962;2023-11-19T07:20:25;10.45;;;4.50;;
45812;SDS011;31519;45.408;10.962;2023-11-19T07:22:54;16.67;;;4.95;;
45812;SDS011;31519;45.408;10.962;2023-11-19T07:25:25;7.88;;;4.40;;
45812;SDS011;31519;45.408;10.962;2023-11-19T07:27:54;5.40;;;4.38;;
45812;SDS011;31519;45.408;10.962;2023-11-19T07:30:22;13.63;;;5.53;;
45812;SDS011;31519;45.408;10.962;2023-11-19T07:32:50;11.02;;;5.40;;
45812;SDS011;31519;45.408;10.962;2023-11-19T07:35:19;10.68;;;4.95;;
45812;SDS011;31519;45.408;10.962;2023-11-19T07:37:47;9.52;;;4.72;;
45812;SDS011;31519;45.408;10.962;2023-11-19T07:40:16;9.93;;;5.15;;
45812;SDS011;31519;45.408;10.962;2023-11-19T07:42:44;8.15;;;4.72;;
45812;SDS011;31519;45.408;10.962;2023-11-19T07:45:13;11.23;;;5.43;;
45812;SDS011;31519;45.408;10.962;2023-11-19T07:47:41;10.45;;;5.60;;
45812;SDS011;31519;45.408;10.962;2023-11-19T07:50:12;32.83;;;5.70;;
45812;SDS011;31519;45.408;10.962;2023-11-19T07:52:44;10.70;;;5.55;;
45812;SDS011;31519;45.408;10.962;2023-11-19T07:55:13;13.88;;;5.57;;
45812;SDS011;31519;45.408;10.962;2023-11-19T07:57:41;7.63;;;5.40;;
45812;SDS011;31519;45.408;10.962;2023-11-19T08:00:10;9.40;;;6.10;;
45812;SDS011;31519;45.408;10.962;2023-11-19T08:02:41;14.85;;;6.40;;
45812;SDS011;31519;45.408;10.962;2023-11-19T08:05:10;9.50;;;6.03;;
45812;SDS011;31519;45.408;10.962;2023-11-19T08:07:39;11.85;;;6.88;;
45812;SDS011;31519;45.408;10.962;2023-11-19T08:10:07;13.32;;;6.05;;
45812;SDS011;31519;45.408;10.962;2023-11-19T08:12:37;10.55;;;6.47;;
45812;SDS011;31519;45.408;10.962;2023-11-19T08:15:06;12.10;;;6.47;;
45812;SDS011;31519;45.408;10.962;2023-11-19T08:17:34;19.40;;;6.28;;
45812;SDS011;31519;45.408;10.962;2023-11-19T08:20:03;15.70;;;6.90;;
45812;SDS011;31519;45.408;10.962;2023-11-19T08:22:32;11.73;;;6.40;;
45812;SDS011;31519;45.408;10.962;2023-11-19T08:25:01;15.90;;;6.95;;
45812;SDS011;31519;45.408;10.962;2023-11-19T08:27:29;15.52;;;7.60;;
45812;SDS011;31519;45.408;10.962;2023-11-19T08:29:57;19.15;;;6.75;;
45812;SDS011;31519;45.408;10.962;2023-11-19T08:32:25;14.32;;;7.53;;
45812;SDS011;31519;45.408;10.962;2023-11-19T08:34:55;19.23;;;7.13;;
45812;SDS011;31519;45.408;10.962;2023-11-19T08:37:23;15.93;;;7.75;;
45812;SDS011;31519;45.408;10.962;2023-11-19T08:39:54;14.82;;;7.47;;
45812;SDS011;31519;45.408;10.962;2023-11-19T08:51:07;21.05;;;8.73;;
45812;SDS011;31519;45.408;10.962;2023-11-19T09:09:10;24.50;;;10.73;;
45812;SDS011;31519;45.408;10.962;2023-11-19T09:49:29;18.35;;;10.25;;
